createdAt,value
2023-04-05T00:01:08.173Z,8.65
2023-04-05T00:03:35.940Z,8.69
2023-04-05T00:06:05.869Z,8.65
2023-04-05T00:08:33.586Z,8.60
2023-04-05T00:11:02.646Z,8.55
2023-04-05T00:13:30.858Z,8.50
2023-04-05T00:16:01.041Z,8.48
2023-04-05T00:18:34.624Z,8.44
2023-04-05T00:21:02.594Z,8.41
2023-04-05T00:23:40.196Z,8.38
2023-04-05T00:26:09.536Z,8.39
2023-04-05T00:28:37.203Z,8.35
2023-04-05T00:31:05.914Z,8.31
2023-04-05T00:33:33.662Z,8.26
2023-04-05T00:36:11.230Z,8.24
2023-04-05T00:38:39.168Z,8.22
2023-04-05T00:41:07.180Z,8.19
2023-04-05T00:43:37.412Z,8.16
2023-04-05T00:46:06.170Z,8.12
2023-04-05T00:48:34.509Z,8.08
2023-04-05T00:51:03.243Z,8.05
2023-04-05T00:53:32.454Z,8.02
2023-04-05T00:56:01.333Z,7.96
2023-04-05T00:58:29.542Z,7.92
2023-04-05T01:01:06.608Z,7.90
2023-04-05T01:03:37.432Z,7.87
2023-04-05T01:06:21.884Z,7.84
2023-04-05T01:08:57.287Z,7.81
2023-04-05T01:11:27.308Z,7.75
2023-04-05T01:14:00.220Z,7.75
2023-04-05T01:16:30.011Z,7.72
2023-04-05T01:18:57.645Z,7.74
2023-04-05T01:21:46.544Z,7.73
2023-04-05T01:24:27.549Z,7.70
2023-04-05T01:27:04.111Z,7.67
2023-04-05T01:30:04.560Z,7.64
2023-04-05T01:35:41.857Z,7.59
2023-04-05T01:38:13.552Z,7.56
2023-04-05T01:40:42.930Z,7.53
2023-04-05T01:43:15.138Z,7.46
2023-04-05T01:45:45.718Z,7.49
2023-04-05T01:48:14.033Z,7.44
2023-04-05T01:50:41.909Z,7.41
2023-04-05T01:53:10.519Z,7.38
2023-04-05T01:55:38.269Z,7.36
2023-04-05T01:58:06.168Z,7.34
2023-04-05T02:00:34.415Z,7.30
2023-04-05T02:03:03.586Z,7.29
2023-04-05T02:05:31.396Z,7.25
2023-04-05T02:07:59.542Z,7.23
2023-04-05T02:10:27.272Z,7.20
2023-04-05T02:12:54.932Z,7.18
2023-04-05T02:15:23.133Z,7.17
2023-04-05T02:17:53.999Z,7.15
2023-04-05T02:20:23.829Z,7.15
2023-04-05T02:22:51.786Z,7.11
2023-04-05T02:25:19.604Z,7.10
2023-04-05T02:27:47.938Z,7.09
2023-04-05T02:30:16.176Z,7.06
2023-04-05T02:32:44.702Z,7.05
2023-04-05T02:35:13.723Z,7.01
2023-04-05T02:37:42.801Z,7.04
2023-04-05T02:40:15.830Z,7.02
2023-04-05T02:42:43.566Z,6.98
2023-04-05T02:45:11.852Z,6.95
2023-04-05T02:47:40.176Z,6.92
2023-04-05T02:50:08.944Z,6.89
2023-04-05T02:52:37.579Z,6.86
2023-04-05T02:55:08.348Z,6.85
2023-04-05T02:57:36.027Z,6.82
2023-04-05T03:00:05.006Z,6.78
2023-04-05T03:02:33.345Z,6.77
2023-04-05T03:05:02.371Z,6.73
2023-04-05T03:07:30.479Z,6.71
2023-04-05T03:09:58.624Z,6.70
2023-04-05T03:12:27.708Z,6.68
2023-04-05T03:14:55.628Z,6.66
2023-04-05T03:17:23.930Z,6.64
2023-04-05T03:19:51.626Z,6.62
2023-04-05T03:22:19.301Z,6.61
2023-04-05T03:24:47.959Z,6.60
2023-04-05T03:27:15.655Z,6.59
2023-04-05T03:29:44.727Z,6.57
2023-04-05T03:32:14.441Z,6.56
2023-04-05T03:34:41.934Z,6.59
2023-04-05T03:37:09.579Z,6.56
2023-04-05T03:39:38.207Z,6.52
2023-04-05T03:42:05.999Z,6.49
2023-04-05T03:44:33.696Z,6.47
2023-04-05T03:47:03.247Z,6.46
2023-04-05T03:49:31.090Z,6.43
2023-04-05T03:51:58.747Z,6.42
2023-04-05T03:54:26.982Z,6.41
2023-04-05T03:56:54.743Z,6.41
2023-04-05T03:59:22.503Z,6.40
2023-04-05T04:01:50.800Z,6.39
2023-04-05T04:04:19.945Z,6.39
2023-04-05T04:06:47.690Z,6.38
2023-04-05T04:09:16.261Z,6.36
2023-04-05T04:11:43.914Z,6.34
2023-04-05T04:14:11.596Z,6.32
2023-04-05T04:16:39.838Z,6.30
2023-04-05T04:19:07.536Z,6.28
2023-04-05T04:21:40.115Z,6.26
2023-04-05T04:24:08.016Z,6.24
2023-04-05T04:26:37.468Z,6.22
2023-04-05T04:29:07.213Z,6.20
2023-04-05T04:31:34.728Z,6.25
2023-04-05T04:34:05.524Z,6.21
2023-04-05T04:36:39.826Z,6.17
2023-04-05T04:39:10.304Z,6.15
2023-04-05T04:41:38.188Z,6.12
2023-04-05T04:44:06.667Z,6.10
2023-04-05T04:46:42.953Z,6.06
2023-04-05T04:49:11.273Z,6.04
2023-04-05T04:51:39.183Z,6.01
2023-04-05T04:54:08.384Z,6.01
2023-04-05T04:56:36.824Z,5.99
2023-04-05T04:59:04.494Z,5.96
2023-04-05T05:01:33.999Z,5.95
2023-04-05T05:04:02.416Z,5.94
2023-04-05T05:06:31.302Z,5.92
2023-04-05T05:08:58.962Z,5.90
2023-04-05T05:11:29.452Z,5.89
2023-04-05T05:13:57.106Z,5.87
2023-04-05T05:16:24.884Z,5.85
2023-04-05T05:18:53.209Z,5.84
2023-04-05T05:21:21.039Z,5.84
2023-04-05T05:23:49.156Z,5.84
2023-04-05T05:26:17.320Z,5.85
2023-04-05T05:28:48.818Z,5.86
2023-04-05T05:31:18.221Z,5.86
2023-04-05T05:33:49.477Z,5.89
2023-04-05T05:36:17.164Z,5.91
2023-04-05T05:38:45.406Z,5.94
2023-04-05T05:41:13.281Z,5.96
2023-04-05T05:43:40.944Z,6.00
2023-04-05T05:46:10.505Z,6.04
2023-04-05T05:48:38.203Z,6.07
2023-04-05T05:51:09.764Z,6.10
2023-04-05T05:53:38.023Z,6.15
2023-04-05T05:56:06.499Z,6.18
2023-04-05T05:58:34.325Z,6.23
2023-04-05T06:01:04.300Z,6.30
2023-04-05T06:03:33.759Z,6.39
2023-04-05T06:06:03.125Z,6.42
2023-04-05T06:08:31.402Z,6.52
2023-04-05T06:10:59.408Z,6.59
2023-04-05T06:13:27.171Z,6.65
2023-04-05T06:15:55.199Z,6.71
2023-04-05T06:18:22.899Z,6.75
2023-04-05T06:20:51.930Z,6.83
2023-04-05T06:23:20.188Z,6.86
2023-04-05T06:25:47.867Z,6.89
2023-04-05T06:28:15.615Z,6.93
2023-04-05T06:30:43.766Z,6.97
2023-04-05T06:33:11.516Z,7.03
2023-04-05T06:35:39.287Z,7.10
2023-04-05T06:38:08.729Z,7.15
2023-04-05T06:40:36.396Z,7.18
2023-04-05T06:43:04.128Z,7.23
2023-04-05T06:45:32.264Z,7.30
2023-04-05T06:47:59.997Z,7.34
2023-04-05T06:50:27.735Z,7.39
2023-04-05T06:52:56.059Z,7.45
2023-04-05T06:55:25.116Z,7.52
2023-04-05T06:57:52.841Z,7.60
2023-04-05T07:00:21.583Z,7.67
2023-04-05T07:02:49.292Z,7.77
2023-04-05T07:05:17.062Z,7.89
2023-04-05T07:07:45.771Z,8.01
2023-04-05T07:10:13.462Z,8.13
2023-04-05T07:12:42.543Z,8.28
2023-04-05T07:15:11.548Z,8.39
2023-04-05T07:17:39.262Z,8.55
2023-04-05T07:20:08.364Z,8.71
2023-04-05T07:22:36.587Z,8.87
2023-04-05T07:25:05.558Z,9.02
2023-04-05T07:27:33.228Z,9.17
2023-04-05T07:30:02.833Z,9.33
2023-04-05T07:32:30.505Z,9.50
2023-04-05T07:34:58.224Z,9.66
2023-04-05T07:37:27.441Z,9.80
2023-04-05T07:39:55.132Z,9.96
2023-04-05T07:42:22.866Z,10.12
2023-04-05T07:44:50.718Z,10.26
2023-04-05T07:47:19.922Z,10.44
2023-04-05T07:49:47.580Z,10.59
2023-04-05T07:52:15.469Z,10.75
2023-04-05T07:54:43.920Z,10.91
2023-04-05T07:57:11.715Z,11.07
2023-04-05T07:59:39.857Z,11.23
2023-04-05T08:02:14.620Z,11.39
2023-04-05T08:04:44.409Z,11.54
2023-04-05T08:07:12.076Z,11.69
2023-04-05T08:09:39.753Z,11.81
2023-04-05T08:12:07.909Z,11.93
2023-04-05T08:14:35.602Z,12.04
2023-04-05T08:17:03.256Z,12.16
2023-04-05T08:19:31.137Z,12.24
2023-04-05T08:22:00.157Z,12.32
2023-04-05T08:24:27.885Z,12.41
2023-04-05T08:26:56.320Z,12.46
2023-04-05T08:29:24.158Z,12.56
2023-04-05T08:31:51.850Z,12.67
2023-04-05T08:34:19.663Z,12.76
2023-04-05T08:36:48.846Z,12.87
2023-04-05T08:39:18.671Z,12.92
2023-04-05T08:41:51.565Z,13.07
2023-04-05T08:44:23.617Z,13.15
2023-04-05T08:46:52.209Z,13.24
2023-04-05T08:49:19.896Z,13.33
2023-04-05T08:51:47.584Z,13.39
2023-04-05T08:54:15.837Z,13.45
2023-04-05T08:56:48.865Z,13.53
2023-04-05T08:59:19.671Z,13.58
2023-04-05T09:01:49.179Z,13.64
2023-04-05T09:04:19.842Z,13.72
2023-04-05T09:06:50.670Z,13.80
2023-04-05T09:09:21.695Z,13.82
2023-04-05T09:11:51.408Z,13.95
2023-04-05T09:14:20.142Z,14.08
2023-04-05T09:16:48.280Z,14.15
2023-04-05T09:19:16.180Z,14.22
2023-04-05T09:22:00.983Z,14.28
2023-04-05T09:24:36.687Z,14.31
2023-04-05T09:27:10.814Z,14.36
2023-04-05T09:29:39.802Z,14.37
2023-04-05T09:32:09.402Z,14.39
2023-04-05T09:34:38.144Z,14.31
2023-04-05T09:37:14.492Z,14.36
2023-04-05T09:39:42.851Z,14.22
2023-04-05T09:42:15.259Z,14.33
2023-04-05T09:44:57.365Z,14.28
2023-04-05T09:47:30.821Z,14.27
2023-04-05T09:49:59.038Z,14.34
2023-04-05T09:52:28.909Z,14.38
2023-04-05T09:54:59.300Z,14.45
2023-04-05T09:57:29.480Z,14.53
2023-04-05T09:59:57.314Z,14.57
2023-04-05T10:02:26.619Z,14.67
2023-04-05T10:04:54.326Z,14.52
2023-04-05T10:07:22.056Z,14.61
2023-04-05T10:09:50.197Z,14.67
2023-04-05T10:12:27.434Z,14.71
2023-04-05T10:14:57.176Z,14.77
2023-04-05T10:17:28.463Z,14.74
2023-04-05T10:20:10.914Z,14.71
2023-04-05T10:22:49.979Z,14.65
2023-04-05T10:25:25.607Z,14.69
2023-04-05T10:27:56.654Z,14.76
2023-04-05T10:30:35.590Z,14.83
2023-04-05T10:33:12.786Z,14.82
2023-04-05T10:35:51.345Z,14.92
2023-04-05T10:38:24.291Z,14.98
2023-04-05T10:40:55.861Z,15.03
2023-04-05T10:43:26.669Z,15.12
2023-04-05T10:45:56.763Z,15.20
2023-04-05T10:48:35.666Z,15.28
2023-04-05T10:51:04.457Z,15.16
2023-04-05T10:53:33.626Z,15.13
2023-04-05T10:56:02.866Z,15.24
2023-04-05T10:58:31.481Z,15.31
2023-04-05T11:01:01.636Z,15.39
2023-04-05T11:03:49.422Z,15.48
2023-04-05T11:06:22.061Z,15.58
2023-04-05T11:08:51.787Z,15.67
2023-04-05T11:11:20.265Z,15.75
2023-04-05T11:13:49.888Z,15.84
2023-04-05T11:16:19.115Z,15.93
2023-04-05T11:18:47.958Z,16.00
2023-04-05T11:21:23.812Z,16.08
2023-04-05T11:24:06.657Z,16.12
2023-04-05T11:29:50.655Z,16.03
2023-04-05T11:32:20.003Z,16.02
2023-04-05T11:35:00.180Z,16.00
2023-04-05T11:37:56.775Z,16.02
2023-04-05T11:40:29.665Z,15.98
2023-04-05T11:43:02.965Z,15.99
2023-04-05T11:45:32.507Z,15.88
2023-04-05T11:48:05.986Z,15.96
2023-04-05T11:50:34.229Z,15.99
2023-04-05T11:53:12.907Z,16.03
2023-04-05T11:55:42.383Z,16.07
2023-04-05T11:58:14.168Z,16.15
2023-04-05T12:00:42.318Z,16.21
2023-04-05T12:03:14.500Z,16.23
2023-04-05T12:05:49.801Z,16.33
2023-04-05T12:08:18.177Z,16.36
2023-04-05T12:10:45.977Z,16.43
2023-04-05T12:13:13.639Z,16.48
2023-04-05T12:15:42.083Z,16.53
2023-04-05T12:18:17.486Z,16.60
2023-04-05T12:20:45.822Z,16.58
2023-04-05T12:23:13.777Z,16.57
2023-04-05T12:25:42.793Z,16.31
2023-04-05T12:28:11.671Z,16.30
2023-04-05T12:30:49.620Z,16.26
2023-04-05T12:33:28.365Z,16.25
2023-04-05T12:35:56.135Z,16.23
2023-04-05T12:38:27.075Z,16.26
2023-04-05T12:40:55.353Z,16.25
2023-04-05T12:43:24.157Z,16.28
2023-04-05T12:45:56.653Z,16.30
2023-04-05T12:48:26.038Z,16.33
2023-04-05T12:50:55.032Z,16.34
2023-04-05T12:53:25.609Z,16.36
2023-04-05T12:55:54.986Z,16.40
2023-04-05T12:58:24.424Z,16.41
2023-04-05T13:00:52.365Z,16.44
2023-04-05T13:03:21.694Z,16.43
2023-04-05T13:05:50.923Z,16.49
2023-04-05T13:08:19.601Z,16.46
2023-04-05T13:10:48.028Z,16.42
2023-04-05T13:13:16.333Z,16.40
2023-04-05T13:15:44.910Z,16.40
2023-04-05T13:18:14.764Z,16.39
2023-04-05T13:20:43.284Z,16.45
2023-04-05T13:23:12.969Z,16.50
2023-04-05T13:25:41.494Z,16.51
2023-04-05T13:28:10.426Z,16.53
2023-04-05T13:30:38.682Z,16.54
2023-04-05T13:33:06.488Z,16.57
2023-04-05T13:35:34.350Z,16.60
2023-04-05T13:38:04.628Z,16.63
2023-04-05T13:40:33.954Z,16.54
2023-04-05T13:43:01.635Z,16.50
2023-04-05T13:45:29.745Z,16.54
2023-04-05T13:47:57.437Z,16.56
2023-04-05T13:50:25.661Z,16.51
2023-04-05T13:52:53.649Z,16.41
2023-04-05T13:55:21.370Z,16.47
2023-04-05T13:57:50.422Z,16.40
2023-04-05T14:00:18.855Z,16.36
2023-04-05T14:02:46.993Z,16.39
2023-04-05T14:05:15.503Z,16.33
2023-04-05T14:07:43.574Z,16.27
2023-04-05T14:10:12.448Z,16.30
2023-04-05T14:12:40.547Z,16.28
2023-04-05T14:15:10.491Z,16.33
2023-04-05T14:17:38.348Z,16.34
2023-04-05T14:20:08.105Z,16.35
2023-04-05T14:22:36.458Z,16.37
2023-04-05T14:25:04.803Z,16.38
2023-04-05T14:27:32.592Z,16.38
2023-04-05T14:30:02.658Z,16.42
2023-04-05T14:32:33.704Z,16.48
2023-04-05T14:35:01.800Z,16.49
2023-04-05T14:37:29.951Z,16.49
2023-04-05T14:39:57.749Z,16.51
2023-04-05T14:42:34.137Z,16.53
2023-04-05T14:45:10.938Z,16.56
2023-04-05T14:47:39.932Z,16.60
2023-04-05T14:50:08.712Z,16.54
2023-04-05T14:52:37.732Z,16.55
2023-04-05T14:55:06.186Z,16.56
2023-04-05T14:57:33.976Z,16.52
2023-04-05T15:00:02.301Z,16.52
2023-04-05T15:02:30.304Z,16.46
2023-04-05T15:05:00.471Z,16.49
2023-04-05T15:07:29.324Z,16.47
2023-04-05T15:09:57.153Z,16.48
2023-04-05T15:12:25.145Z,16.47
2023-04-05T15:14:54.852Z,16.40
2023-04-05T15:17:22.747Z,16.32
2023-04-05T15:19:50.598Z,16.37
2023-04-05T15:22:21.291Z,16.36
2023-04-05T15:24:49.102Z,16.32
2023-04-05T15:27:16.886Z,16.31
2023-04-05T15:29:45.195Z,16.34
2023-04-05T15:32:13.000Z,16.36
2023-04-05T15:34:41.489Z,16.33
2023-04-05T15:37:10.782Z,16.36
2023-04-05T15:39:39.970Z,16.41
2023-04-05T15:42:07.819Z,16.41
2023-04-05T15:44:36.308Z,16.39
2023-04-05T15:47:04.180Z,16.37
2023-04-05T15:49:32.110Z,16.38
2023-04-05T15:52:00.937Z,16.40
2023-04-05T15:54:28.780Z,16.36
2023-04-05T15:56:58.112Z,16.34
2023-04-05T15:59:26.287Z,16.32
2023-04-05T16:01:54.186Z,16.35
2023-04-05T16:04:23.156Z,16.36
2023-04-05T16:06:51.799Z,16.36
2023-04-05T16:09:19.577Z,16.29
2023-04-05T16:11:47.731Z,16.21
2023-04-05T16:14:17.657Z,16.27
2023-04-05T16:16:53.820Z,16.28
2023-04-05T16:19:23.607Z,16.30
2023-04-05T16:21:52.820Z,16.29
2023-04-05T16:24:21.210Z,16.34
2023-04-05T16:26:49.721Z,16.36
2023-04-05T16:29:18.974Z,16.39
2023-04-05T16:31:47.913Z,16.40
2023-04-05T16:34:16.099Z,16.42
2023-04-05T16:36:43.987Z,16.45
2023-04-05T16:39:11.790Z,16.46
2023-04-05T16:41:40.067Z,16.43
2023-04-05T16:44:07.930Z,16.38
2023-04-05T16:46:37.211Z,16.40
2023-04-05T16:49:05.818Z,16.39
2023-04-05T16:51:35.271Z,16.40
2023-04-05T16:54:03.424Z,16.38
2023-04-05T16:56:31.765Z,16.37
2023-04-05T16:58:59.800Z,16.33
2023-04-05T17:01:28.758Z,16.24
2023-04-05T17:04:00.376Z,16.23
2023-04-05T17:06:28.969Z,16.21
2023-04-05T17:08:56.911Z,16.12
2023-04-05T17:11:25.416Z,16.12
2023-04-05T17:13:53.210Z,16.04
2023-04-05T17:16:21.775Z,15.99
2023-04-05T17:18:50.296Z,16.01
2023-04-05T17:21:20.055Z,15.98
2023-04-05T17:23:47.913Z,15.95
2023-04-05T17:26:16.565Z,15.82
2023-04-05T17:28:44.505Z,15.83
2023-04-05T17:31:12.522Z,15.73
2023-04-05T17:33:41.256Z,15.64
2023-04-05T17:36:09.374Z,15.66
2023-04-05T17:38:38.755Z,15.63
2023-04-05T17:41:07.208Z,15.63
2023-04-05T17:43:35.690Z,15.64
2023-04-05T17:46:04.157Z,15.63
2023-04-05T17:48:33.318Z,15.64
2023-04-05T17:51:06.113Z,15.67
2023-04-05T17:53:34.408Z,15.66
2023-04-05T17:56:04.103Z,15.66
2023-04-05T17:58:32.432Z,15.69
2023-04-05T18:01:00.864Z,15.68
2023-04-05T18:03:29.138Z,15.65
2023-04-05T18:05:57.357Z,15.62
2023-04-05T18:08:26.975Z,15.58
2023-04-05T18:10:58.356Z,15.61
2023-04-05T18:13:29.055Z,15.57
2023-04-05T18:15:57.635Z,15.49
2023-04-05T18:18:26.293Z,15.44
2023-04-05T18:20:55.931Z,15.39
2023-04-05T18:23:24.917Z,15.41
2023-04-05T18:25:53.810Z,15.36
2023-04-05T18:28:23.644Z,15.30
2023-04-05T18:30:53.183Z,15.24
2023-04-05T18:33:22.467Z,15.20
2023-04-05T18:35:51.919Z,15.11
2023-04-05T18:38:19.834Z,15.10
2023-04-05T18:40:47.674Z,15.03
2023-04-05T18:43:15.983Z,14.99
2023-04-05T18:45:43.851Z,14.93
2023-04-05T18:48:13.438Z,14.89
2023-04-05T18:50:41.754Z,14.83
2023-04-05T18:53:09.772Z,14.78
2023-04-05T18:55:37.898Z,14.72
2023-04-05T18:58:06.515Z,14.68
2023-04-05T19:00:34.994Z,14.64
2023-04-05T19:03:02.896Z,14.59
2023-04-05T19:05:32.797Z,14.54
2023-04-05T19:08:00.633Z,14.47
2023-04-05T19:10:28.503Z,14.43
2023-04-05T19:12:57.075Z,14.39
2023-04-05T19:15:24.881Z,14.34
2023-04-05T19:17:52.732Z,14.29
2023-04-05T19:20:20.960Z,14.24
2023-04-05T19:22:50.294Z,14.18
2023-04-05T19:25:18.312Z,14.13
2023-04-05T19:27:46.880Z,14.09
2023-04-05T19:30:14.870Z,14.04
2023-04-05T19:32:42.743Z,13.96
2023-04-05T19:35:11.756Z,13.91
2023-04-05T19:37:39.654Z,13.86
2023-04-05T19:40:10.414Z,13.83
2023-04-05T19:42:38.794Z,13.76
2023-04-05T19:45:09.297Z,13.70
2023-04-05T19:47:44.950Z,13.68
2023-04-05T19:50:40.163Z,13.63
2023-04-05T19:53:09.221Z,13.58
2023-04-05T19:55:39.904Z,13.54
2023-04-05T19:58:09.194Z,13.47
2023-04-05T20:00:38.829Z,13.44
2023-04-05T20:03:29.224Z,13.41
2023-04-05T20:06:05.312Z,13.36
2023-04-05T20:08:36.427Z,13.30
2023-04-05T20:11:11.740Z,13.26
2023-04-05T20:13:43.418Z,13.21
2023-04-05T20:16:15.567Z,13.16
2023-04-05T20:18:47.821Z,13.11
2023-04-05T20:21:16.877Z,13.03
2023-04-05T20:23:45.838Z,12.96
2023-04-05T20:26:16.727Z,12.93
2023-04-05T20:28:53.276Z,12.88
2023-04-05T20:31:23.614Z,12.81
2023-04-05T20:33:54.523Z,12.77
2023-04-05T20:36:24.601Z,12.70
2023-04-05T20:38:52.801Z,12.66
2023-04-05T20:41:21.961Z,12.61
2023-04-05T20:43:49.926Z,12.55
2023-04-05T20:46:17.772Z,12.52
2023-04-05T20:48:46.777Z,12.48
2023-04-05T20:51:16.419Z,12.46
2023-04-05T20:54:10.995Z,12.43
2023-04-05T20:56:41.146Z,12.40
2023-04-05T20:59:09.249Z,12.35
2023-04-05T21:01:37.865Z,12.32
2023-04-05T21:04:06.708Z,12.31
2023-04-05T21:06:36.559Z,12.27
2023-04-05T21:09:04.772Z,12.24
2023-04-05T21:11:32.785Z,12.22
2023-04-05T21:14:01.919Z,12.22
2023-04-05T21:16:29.718Z,12.18
2023-04-05T21:18:57.732Z,12.16
2023-04-05T21:21:26.145Z,12.15
2023-04-05T21:23:53.967Z,12.13
2023-04-05T21:26:22.885Z,12.12
2023-04-05T21:28:50.688Z,12.10
2023-04-05T21:31:19.864Z,12.10
2023-04-05T21:33:48.201Z,12.08
2023-04-05T21:36:15.984Z,12.08
2023-04-05T21:38:43.769Z,12.05
2023-04-05T21:41:12.194Z,12.05
2023-04-05T21:43:40.022Z,12.02
2023-04-05T21:46:07.883Z,12.02
2023-04-05T21:48:37.786Z,12.02
2023-04-05T21:51:05.601Z,12.01
2023-04-05T21:53:33.369Z,12.00
2023-04-05T21:56:01.693Z,12.01
2023-04-05T21:58:29.471Z,12.01
2023-04-05T22:00:59.539Z,11.99
2023-04-05T22:03:28.102Z,12.01
2023-04-05T22:05:57.311Z,12.02
2023-04-05T22:08:26.662Z,12.00
2023-04-05T22:10:55.109Z,12.02
2023-04-05T22:13:22.912Z,12.01
2023-04-05T22:15:50.723Z,12.00
2023-04-05T22:18:18.952Z,12.01
2023-04-05T22:20:46.732Z,12.01
2023-04-05T22:23:15.986Z,12.03
2023-04-05T22:25:44.425Z,12.02
2023-04-05T22:28:12.216Z,12.03
2023-04-05T22:30:44.148Z,12.04
2023-04-05T22:33:14.232Z,12.04
2023-04-05T22:35:42.763Z,12.04
2023-04-05T22:38:10.793Z,12.05
2023-04-05T22:40:40.509Z,12.05
2023-04-05T22:43:08.095Z,12.09
2023-04-05T22:45:36.003Z,12.08
2023-04-05T22:48:04.392Z,12.07
2023-04-05T22:50:32.485Z,12.04
2023-04-05T22:53:00.289Z,12.04
2023-04-05T22:55:28.591Z,12.02
2023-04-05T22:57:57.757Z,12.02
2023-04-05T23:00:25.558Z,12.01
2023-04-05T23:02:54.659Z,12.00
2023-04-05T23:05:22.538Z,11.97
2023-04-05T23:07:50.416Z,11.98
2023-04-05T23:10:19.162Z,11.98
2023-04-05T23:12:47.688Z,11.97
2023-04-05T23:15:16.936Z,11.97
2023-04-05T23:17:45.563Z,11.93
2023-04-05T23:20:13.600Z,11.92
2023-04-05T23:22:41.463Z,11.91
2023-04-05T23:25:10.995Z,11.90
2023-04-05T23:27:38.804Z,11.88
2023-04-05T23:30:07.974Z,11.87
2023-04-05T23:32:37.573Z,11.86
2023-04-05T23:35:05.923Z,11.83
2023-04-05T23:37:33.852Z,11.82
2023-04-05T23:40:02.249Z,11.80
2023-04-05T23:42:30.055Z,11.79
2023-04-05T23:44:57.893Z,11.78
2023-04-05T23:47:26.194Z,11.76
2023-04-05T23:49:55.777Z,11.77
2023-04-05T23:52:23.576Z,11.76
2023-04-05T23:54:51.821Z,11.76
2023-04-05T23:57:19.593Z,11.73
2023-04-05T23:59:47.405Z,11.75
